NOW1 ENBO-ENBO

Flight info

Callsign NOW1
Flight time 0h 2m
Altitude 6000
Route WEST DEPARTURE
Aircraft T37/L-U/C

Departure

Time 2026-04-26 16:02
Airport Bodø Airport (ENBO)

Arrival

Time 2026-04-26 16:04
Airport Bodø Airport (ENBO)
Time Latitude Longitude Altitude Speed Heading
2026-04-26 15:58 67.26812 14.39173 33 ft 24 kts 127°
2026-04-26 15:58 67.26765 14.39545 27 ft 26 kts 57°
2026-04-26 15:58 67.26866 14.39888 38 ft 13 kts 70°
2026-04-26 15:58 67.26871 14.39913 39 ft 0 kts
2026-04-26 15:59 67.26891 14.39921 39 ft 8 kts 10°
2026-04-26 15:59 67.26501 14.36663 41 ft 8 kts 55°
2026-04-26 16:00 67.26561 14.36688 46 ft 11 kts 358°
2026-04-26 16:00 67.26646 14.36680 51 ft 14 kts 348°
2026-04-26 16:00 67.26767 14.36614 43 ft 24 kts 349°
2026-04-26 16:00 67.26897 14.36537 33 ft 11 kts 347°
2026-04-26 16:01 67.26915 14.36436 33 ft 0 kts 259°
2026-04-26 16:01 67.26896 14.36203 32 ft 54 kts 259°
2026-04-26 16:01 67.26733 14.34262 40 ft 163 kts 263°
2026-04-26 16:01 67.26436 14.30759 275 ft 237 kts 261°
2026-04-26 16:02 67.26036 14.26294 1292 ft 257 kts 258°
2026-04-26 16:02 67.25579 14.21754 2731 ft 269 kts 259°
2026-04-26 16:02 67.25791 14.17398 3545 ft 222 kts 298°
2026-04-26 16:02 67.26493 14.15860 3229 ft 200 kts 352°
2026-04-26 16:03 67.27860 14.18686 2086 ft 217 kts 79°
2026-04-26 16:03 67.27449 14.22315 1255 ft 219 kts 122°
2026-04-26 16:03 67.26389 14.25275 517 ft 221 kts 140°
2026-04-26 16:03 67.25589 14.28030 348 ft 172 kts 99°
2026-04-26 16:04 67.25332 14.30807 1 ft 99 kts 99°
2026-04-26 16:04 67.25331 14.31204 -1 ft 10 kts 269°